createdAt,value
2022-08-09T00:00:23.096Z,101999.88
2022-08-09T00:02:51.522Z,102004.66
2022-08-09T00:06:18.689Z,101997.41
2022-08-09T00:08:32.035Z,102002.34
2022-08-09T00:11:05.869Z,102003.66
2022-08-09T00:13:50.310Z,102001.81
2022-08-09T00:16:26.190Z,102007.53
2022-08-09T00:19:10.289Z,102002.91
2022-08-09T00:21:55.547Z,101994.97
2022-08-09T00:24:27.252Z,102000.22
2022-08-09T00:26:55.989Z,102003.84
2022-08-09T00:30:23.397Z,102005.84
2022-08-09T00:32:13.115Z,101998.25
2022-08-09T00:34:52.949Z,101997.91
2022-08-09T00:37:20.065Z,102002.22
2022-08-09T00:40:08.966Z,101993.94
2022-08-09T00:44:13.805Z,101991.97
2022-08-09T00:45:21.540Z,101994.41
2022-08-09T00:47:48.513Z,101990.78
2022-08-09T00:50:15.782Z,101994.06
2022-08-09T00:52:43.899Z,101992.91
2022-08-09T00:55:32.741Z,101996.88
2022-08-09T00:57:59.535Z,101994.56
2022-08-09T01:00:28.527Z,101997.84
2022-08-09T01:03:31.109Z,102002.75
2022-08-09T01:06:17.592Z,101999.28
2022-08-09T01:09:42.095Z,101992.84
2022-08-09T01:12:53.186Z,101997.28
2022-08-09T01:15:29.732Z,101994.81
2022-08-09T01:18:30.556Z,101983.72
2022-08-09T01:21:44.609Z,101987.72
2022-08-09T01:24:39.643Z,101996.94
2022-08-09T01:27:19.959Z,101990.50
2022-08-09T01:30:00.711Z,101998.47
2022-08-09T01:32:38.760Z,101986.03
2022-08-09T01:35:37.219Z,101988.03
2022-08-09T01:38:18.287Z,101991.66
2022-08-09T01:41:09.434Z,101995.28
2022-08-09T01:43:52.021Z,101997.28
2022-08-09T01:46:31.673Z,101996.47
2022-08-09T01:49:12.724Z,101994.81
2022-08-09T01:51:55.816Z,101995.16
2022-08-09T01:54:40.964Z,101992.91
2022-08-09T01:57:29.064Z,101998.06
2022-08-09T02:00:19.151Z,102000.38
2022-08-09T02:02:53.956Z,101999.06
2022-08-09T02:05:38.207Z,101997.75
2022-08-09T02:08:35.716Z,102007.91
2022-08-09T02:11:16.988Z,101998.06
2022-08-09T02:13:55.244Z,102002.22
2022-08-09T02:16:53.406Z,101994.81
2022-08-09T02:19:38.949Z,102009.53
2022-08-09T02:23:00.317Z,102005.22
2022-08-09T02:25:41.980Z,102002.75
2022-08-09T02:28:27.102Z,102007.56
2022-08-09T02:31:26.026Z,102004.41
2022-08-09T02:34:06.882Z,102004.91
2022-08-09T02:36:52.548Z,102012.03
2022-08-09T02:39:34.186Z,102003.59
2022-08-09T02:42:24.761Z,101996.66
2022-08-09T02:45:09.608Z,102002.28
2022-08-09T02:47:57.391Z,102006.94
2022-08-09T02:50:56.261Z,101992.72
2022-08-09T02:53:37.130Z,102005.41
2022-08-09T02:56:10.266Z,102007.41
2022-08-09T02:58:41.342Z,102012.03
2022-08-09T03:01:21.886Z,102010.03
2022-08-09T03:04:16.813Z,102014.97
2022-08-09T03:06:49.179Z,102016.94
2022-08-09T03:09:20.586Z,102015.81
2022-08-09T03:12:05.519Z,102017.94
2022-08-09T03:14:36.544Z,102019.22
2022-08-09T03:17:05.762Z,102016.09
2022-08-09T03:19:58.232Z,102013.63
2022-08-09T03:22:30.315Z,102010.00
2022-08-09T03:25:21.471Z,102008.38
2022-08-09T03:27:52.770Z,102016.78
2022-08-09T03:30:30.095Z,102025.22
2022-08-09T03:33:15.314Z,102022.53
2022-08-09T03:36:16.011Z,102023.00
2022-08-09T03:38:43.468Z,102021.00
2022-08-09T03:41:18.395Z,102025.16
2022-08-09T03:44:03.401Z,102027.09
2022-08-09T03:46:36.934Z,102026.44
2022-08-09T03:49:08.668Z,102025.63
2022-08-09T03:51:58.538Z,102036.00
2022-08-09T03:54:38.423Z,102030.75
2022-08-09T03:57:20.252Z,102041.63
2022-08-09T03:59:56.067Z,102034.66
2022-08-09T04:02:32.803Z,102034.66
2022-08-09T04:05:06.757Z,102038.97
2022-08-09T04:07:52.906Z,102037.13
2022-08-09T04:10:28.778Z,102040.75
2022-08-09T04:13:00.736Z,102036.78
2022-08-09T04:15:40.563Z,102033.16
2022-08-09T04:18:18.111Z,102041.09
2022-08-09T04:20:51.277Z,102046.84
2022-08-09T04:23:24.362Z,102051.97
2022-08-09T04:25:53.327Z,102056.44
2022-08-09T04:28:33.103Z,102052.13
2022-08-09T04:31:09.288Z,102054.38
2022-08-09T04:33:52.923Z,102054.03
2022-08-09T04:36:30.212Z,102058.16
2022-08-09T04:39:08.792Z,102059.44
2022-08-09T04:41:43.392Z,102058.28
2022-08-09T04:44:14.544Z,102066.34
2022-08-09T04:46:58.219Z,102063.53
2022-08-09T04:49:52.441Z,102062.56
2022-08-09T04:52:28.915Z,102058.72
2022-08-09T04:55:01.380Z,102068.56
2022-08-09T04:57:53.895Z,102068.09
2022-08-09T05:00:17.267Z,102084.94
2022-08-09T05:02:48.755Z,102085.06
2022-08-09T05:05:32.171Z,102073.63
2022-08-09T05:08:08.265Z,102081.19
2022-08-09T05:10:36.779Z,102077.81
2022-08-09T05:13:04.197Z,102075.97
2022-08-09T05:15:43.242Z,102086.97
2022-08-09T05:18:39.043Z,102082.44
2022-08-09T05:21:09.806Z,102080.41
2022-08-09T05:23:57.115Z,102082.31
2022-08-09T05:26:35.771Z,102089.34
2022-08-09T05:29:05.368Z,102091.50
2022-08-09T05:31:39.823Z,102100.97
2022-08-09T05:34:16.894Z,102097.13
2022-08-09T05:36:47.105Z,102095.06
2022-08-09T05:39:28.640Z,102096.13
2022-08-09T05:42:01.512Z,102094.63
2022-08-09T05:44:33.248Z,102097.06
2022-08-09T05:47:04.943Z,102098.00
2022-08-09T05:50:29.979Z,102106.09
2022-08-09T05:52:24.739Z,102102.84
2022-08-09T05:54:52.298Z,102098.72
2022-08-09T05:57:19.567Z,102103.69
2022-08-09T05:59:52.542Z,102109.81
2022-08-09T06:02:20.143Z,102103.47
2022-08-09T06:04:49.054Z,102108.16
2022-08-09T06:07:21.300Z,102116.63
2022-08-09T06:09:54.880Z,102110.72
2022-08-09T06:12:31.130Z,102111.06
2022-08-09T06:15:01.347Z,102118.44
2022-08-09T06:17:39.902Z,102127.59
2022-08-09T06:20:09.220Z,102125.34
2022-08-09T06:22:36.894Z,102131.09
2022-08-09T06:25:04.930Z,102127.47
2022-08-09T06:27:42.175Z,102133.78
2022-08-09T06:30:13.937Z,102129.41
2022-08-09T06:32:58.900Z,102137.75
2022-08-09T06:35:35.804Z,102139.75
2022-08-09T06:38:17.057Z,102137.00
2022-08-09T06:40:46.334Z,102137.81
2022-08-09T06:43:14.253Z,102145.22
2022-08-09T06:46:07.785Z,102145.16
2022-08-09T06:48:31.068Z,102145.03
2022-08-09T06:51:00.197Z,102143.75
2022-08-09T06:53:33.198Z,102147.28
2022-08-09T06:56:07.920Z,102144.50
2022-08-09T07:00:46.868Z,102134.91
2022-08-09T07:01:53.766Z,102145.44
2022-08-09T07:04:20.158Z,102144.81
2022-08-09T07:06:53.360Z,102140.00
2022-08-09T07:09:57.105Z,102144.50
2022-08-09T07:12:18.211Z,102145.16
2022-08-09T07:14:50.745Z,102148.34
2022-08-09T07:17:20.318Z,102153.63
2022-08-09T07:19:51.039Z,102152.97
2022-08-09T07:22:42.224Z,102157.78
2022-08-09T07:25:11.934Z,102156.09
2022-08-09T07:27:53.639Z,102158.34
2022-08-09T07:30:25.218Z,102159.13
2022-08-09T07:32:52.881Z,102157.41
2022-08-09T07:35:22.586Z,102163.22
2022-08-09T07:37:50.660Z,102157.88
2022-08-09T07:40:26.732Z,102163.53
2022-08-09T07:42:59.948Z,102165.81
2022-08-09T07:45:39.626Z,102167.72
2022-08-09T07:48:28.530Z,102165.31
2022-08-09T07:51:10.262Z,102159.47
2022-08-09T07:54:06.855Z,102161.38
2022-08-09T07:56:38.915Z,102163.22
2022-08-09T07:59:25.189Z,102166.44
2022-08-09T08:01:55.993Z,102163.75
2022-08-09T08:04:31.889Z,102158.63
2022-08-09T08:07:14.932Z,102162.44
2022-08-09T08:10:08.027Z,102162.72
2022-08-09T08:12:45.616Z,102171.28
2022-08-09T08:15:24.073Z,102164.66
2022-08-09T08:17:57.857Z,102159.34
2022-08-09T08:20:32.608Z,102160.13
2022-08-09T08:23:15.907Z,102159.53
2022-08-09T08:25:48.339Z,102164.50
2022-08-09T08:28:26.107Z,102164.00
2022-08-09T08:31:14.221Z,102156.72
2022-08-09T08:33:53.832Z,102166.56
2022-08-09T08:36:29.715Z,102169.38
2022-08-09T08:39:00.307Z,102166.44
2022-08-09T08:41:50.291Z,102164.34
2022-08-09T08:44:26.822Z,102164.44
2022-08-09T08:47:02.289Z,102160.19
2022-08-09T08:49:46.793Z,102168.69
2022-08-09T08:55:18.970Z,102172.25
2022-08-09T08:57:56.919Z,102167.94
2022-08-09T09:00:34.302Z,102166.38
2022-08-09T09:03:11.408Z,102166.53
2022-08-09T09:05:58.931Z,102178.75
2022-08-09T09:08:43.062Z,102170.81
2022-08-09T09:11:13.409Z,102172.03
2022-08-09T09:13:57.301Z,102169.16
2022-08-09T09:16:35.164Z,102178.03
2022-08-09T09:22:11.919Z,102172.25
2022-08-09T09:24:51.957Z,102163.06
2022-08-09T09:28:05.075Z,102165.00
2022-08-09T09:30:31.571Z,102168.63
2022-08-09T09:33:15.549Z,102161.09
2022-08-09T09:36:20.568Z,102159.88
2022-08-09T09:38:57.222Z,102149.06
2022-08-09T09:41:25.002Z,102158.97
2022-08-09T09:44:11.642Z,102167.50
2022-08-09T09:46:50.565Z,102163.88
2022-08-09T09:49:56.338Z,102152.69
2022-08-09T09:52:35.742Z,102152.03
2022-08-09T09:55:24.173Z,102156.47
2022-08-09T09:58:15.792Z,102151.56
2022-08-09T10:00:59.098Z,102150.88
2022-08-09T10:03:57.758Z,102155.91
2022-08-09T10:06:42.446Z,102149.25
2022-08-09T10:09:23.152Z,102150.22
2022-08-09T10:12:26.942Z,102146.66
2022-08-09T10:14:51.753Z,102141.81
2022-08-09T10:17:38.893Z,102145.53
2022-08-09T10:20:33.069Z,102131.59
2022-08-09T10:23:33.531Z,102143.94
2022-08-09T10:26:07.498Z,102133.41
2022-08-09T10:28:40.474Z,102133.47
2022-08-09T10:32:20.920Z,102132.28
2022-08-09T10:34:08.362Z,102130.25
2022-08-09T10:36:42.249Z,102136.25
2022-08-09T10:39:16.014Z,102128.56
2022-08-09T10:41:48.302Z,102125.75
2022-08-09T10:44:30.526Z,102129.00
2022-08-09T10:48:19.328Z,102135.41
2022-08-09T10:51:29.736Z,102128.47
2022-08-09T10:54:13.909Z,102123.59
2022-08-09T10:56:43.863Z,102129.84
2022-08-09T10:59:30.699Z,102123.06
2022-08-09T11:03:15.623Z,102128.03
2022-08-09T11:05:24.961Z,102120.38
2022-08-09T11:08:47.548Z,102117.09
2022-08-09T11:11:18.439Z,102111.69
2022-08-09T11:13:50.633Z,102118.31
2022-08-09T11:16:40.995Z,102109.03
2022-08-09T11:19:10.964Z,102110.22
2022-08-09T11:22:16.558Z,102110.66
2022-08-09T11:25:19.222Z,102119.44
2022-08-09T11:28:08.076Z,102115.78
2022-08-09T11:30:48.105Z,102113.66
2022-08-09T11:33:17.953Z,102106.78
2022-08-09T11:35:56.449Z,102115.50
2022-08-09T11:38:35.058Z,102106.53
2022-08-09T11:41:15.789Z,102110.91
2022-08-09T11:43:49.389Z,102105.72
2022-08-09T11:46:33.038Z,102101.16
2022-08-09T11:49:05.201Z,102099.66
2022-08-09T11:53:16.041Z,102108.25
2022-08-09T11:55:52.322Z,102102.19
2022-08-09T11:58:30.325Z,102101.38
2022-08-09T12:01:08.938Z,102107.03
2022-08-09T12:03:57.428Z,102109.34
2022-08-09T12:06:32.610Z,102099.50
2022-08-09T12:09:15.086Z,102103.97
2022-08-09T12:12:12.977Z,102103.91
2022-08-09T12:15:04.144Z,102102.91
2022-08-09T12:17:44.504Z,102097.66
2022-08-09T12:20:34.616Z,102095.09
2022-08-09T12:23:04.662Z,102096.66
2022-08-09T12:25:38.048Z,102091.31
2022-08-09T12:28:58.955Z,102079.59
2022-08-09T12:31:58.277Z,102085.44
2022-08-09T12:34:31.388Z,102078.16
2022-08-09T12:37:21.713Z,102082.56
2022-08-09T12:40:18.085Z,102085.03
2022-08-09T12:42:50.654Z,102080.13
2022-08-09T12:45:32.673Z,102076.06
2022-08-09T12:48:20.269Z,102075.66
2022-08-09T12:50:58.134Z,102080.16
2022-08-09T12:53:40.747Z,102073.25
2022-08-09T12:56:43.882Z,102068.75
2022-08-09T12:59:23.952Z,102070.38
2022-08-09T13:01:59.845Z,102069.13
2022-08-09T13:04:37.153Z,102070.31
2022-08-09T13:07:19.978Z,102065.44
2022-08-09T13:10:04.662Z,102052.47
2022-08-09T13:12:32.147Z,102060.19
2022-08-09T13:15:10.416Z,102060.19
2022-08-09T13:18:03.203Z,102063.03
2022-08-09T13:21:03.967Z,102060.13
2022-08-09T13:24:17.459Z,102053.25
2022-08-09T13:26:50.049Z,102063.84
2022-08-09T13:29:28.541Z,102055.34
2022-08-09T13:32:17.773Z,102047.63
2022-08-09T13:34:49.389Z,102054.13
2022-08-09T13:37:50.824Z,102046.44
2022-08-09T13:41:50.812Z,102050.88
2022-08-09T13:42:57.763Z,102055.66
2022-08-09T13:45:32.143Z,102060.56
2022-08-09T13:48:11.875Z,102059.81
2022-08-09T13:50:42.815Z,102056.59
2022-08-09T13:53:10.444Z,102059.00
2022-08-09T13:55:37.915Z,102054.91
2022-08-09T13:58:05.277Z,102061.78
2022-08-09T14:00:48.236Z,102058.13
2022-08-09T14:04:02.547Z,102046.34
2022-08-09T14:06:25.300Z,102049.91
2022-08-09T14:08:54.892Z,102052.31
2022-08-09T14:11:22.248Z,102044.22
2022-08-09T14:14:22.539Z,102043.50
2022-08-09T14:16:37.655Z,102036.66
2022-08-09T14:19:07.828Z,102042.25
2022-08-09T14:21:35.023Z,102036.78
2022-08-09T14:24:10.380Z,102040.31
2022-08-09T14:26:51.176Z,102043.44
2022-08-09T14:30:04.052Z,102040.72
2022-08-09T14:32:11.311Z,102031.63
2022-08-09T14:34:41.307Z,102041.16
2022-08-09T14:37:09.727Z,102038.78
2022-08-09T14:39:47.977Z,102040.50
2022-08-09T14:42:32.026Z,102048.50
2022-08-09T14:46:40.122Z,102034.75
2022-08-09T14:47:58.249Z,102037.53
2022-08-09T14:50:34.604Z,102038.91
2022-08-09T14:53:11.355Z,102036.25
2022-08-09T14:55:42.112Z,102035.56
2022-08-09T14:58:11.943Z,102034.78
2022-08-09T15:00:39.864Z,102038.25
2022-08-09T15:03:10.949Z,102038.31
2022-08-09T15:05:40.252Z,102034.28
2022-08-09T15:08:20.311Z,102028.88
2022-08-09T15:11:00.597Z,102038.41
2022-08-09T15:13:47.750Z,102030.34
2022-08-09T15:16:15.923Z,102028.38
2022-08-09T15:18:43.094Z,102033.69
2022-08-09T15:21:58.157Z,102029.81
2022-08-09T15:24:06.020Z,102026.91
2022-08-09T15:26:46.441Z,102028.09
2022-08-09T15:30:58.542Z,102021.00
2022-08-09T15:32:04.046Z,102027.16
2022-08-09T15:34:35.164Z,102015.84
2022-08-09T15:37:38.064Z,102020.16
2022-08-09T15:40:19.836Z,102014.16
2022-08-09T15:42:50.826Z,102011.88
2022-08-09T15:45:22.082Z,102011.41
2022-08-09T15:48:05.039Z,102008.53
2022-08-09T15:50:38.825Z,102014.63
2022-08-09T15:53:18.776Z,102013.94
2022-08-09T15:56:20.948Z,102015.47
2022-08-09T15:58:41.054Z,102008.88
2022-08-09T16:01:08.484Z,102015.06
2022-08-09T16:03:38.796Z,102015.69
2022-08-09T16:06:29.436Z,102016.97
2022-08-09T16:09:01.295Z,102007.03
2022-08-09T16:11:33.167Z,102007.28
2022-08-09T16:14:07.151Z,102005.34
2022-08-09T16:16:37.904Z,102001.50
2022-08-09T16:19:09.643Z,102006.44
2022-08-09T16:21:40.819Z,102004.25
2022-08-09T16:24:29.715Z,102000.75
2022-08-09T16:26:57.921Z,102003.97
2022-08-09T16:29:36.666Z,102009.16
2022-08-09T16:32:19.170Z,102008.59
2022-08-09T16:34:56.626Z,102007.56
2022-08-09T16:37:54.095Z,102009.72
2022-08-09T16:40:29.659Z,102006.53
2022-08-09T16:43:06.431Z,101997.59
2022-08-09T16:45:33.766Z,102006.16
2022-08-09T16:48:42.959Z,101997.19
2022-08-09T16:50:49.910Z,101996.38
2022-08-09T16:53:34.049Z,101998.81
2022-08-09T16:56:07.653Z,101999.59
2022-08-09T16:58:42.750Z,102008.97
2022-08-09T17:01:23.539Z,102004.84
2022-08-09T17:03:52.238Z,102005.59
2022-08-09T17:06:31.184Z,102007.97
2022-08-09T17:09:17.801Z,102005.47
2022-08-09T17:11:47.982Z,102010.34
2022-08-09T17:14:28.148Z,102018.41
2022-08-09T17:17:02.787Z,102013.78
2022-08-09T17:19:47.652Z,102019.44
2022-08-09T17:22:28.877Z,102015.41
2022-08-09T17:25:10.002Z,102019.88
2022-08-09T17:27:49.370Z,102022.25
2022-08-09T17:30:30.944Z,102020.97
2022-08-09T17:33:22.939Z,102024.50
2022-08-09T17:35:50.814Z,102025.91
2022-08-09T17:38:30.744Z,102030.50
2022-08-09T17:41:02.213Z,102036.91
2022-08-09T17:43:35.465Z,102025.75
2022-08-09T17:46:09.046Z,102038.31
2022-08-09T17:48:52.288Z,102043.25
2022-08-09T17:51:21.995Z,102042.44
2022-08-09T17:53:54.667Z,102051.28
2022-08-09T17:56:35.622Z,102040.63
2022-08-09T17:59:11.791Z,102048.19
2022-08-09T18:02:12.255Z,102052.91
2022-08-09T18:04:31.180Z,102047.59
2022-08-09T18:06:59.439Z,102054.78
2022-08-09T18:09:35.856Z,102049.47
2022-08-09T18:12:19.594Z,102056.22
2022-08-09T18:14:54.398Z,102055.81
2022-08-09T18:18:01.642Z,102046.47
2022-08-09T18:20:55.427Z,102051.91
2022-08-09T18:23:04.893Z,102057.75
2022-08-09T18:25:52.576Z,102058.94
2022-08-09T18:30:42.022Z,102064.19
2022-08-09T18:31:14.772Z,102063.53
2022-08-09T18:33:53.673Z,102067.59
2022-08-09T18:36:26.046Z,102065.81
2022-08-09T18:39:02.626Z,102067.69
2022-08-09T18:41:35.105Z,102078.75
2022-08-09T18:44:13.242Z,102081.81
2022-08-09T18:46:47.334Z,102074.38
2022-08-09T18:49:19.192Z,102076.25
2022-08-09T18:51:54.644Z,102090.25
2022-08-09T18:54:28.395Z,102095.47
2022-08-09T18:56:56.737Z,102096.72
2022-08-09T18:59:37.445Z,102091.75
2022-08-09T19:02:18.151Z,102097.69
2022-08-09T19:04:47.965Z,102102.59
2022-08-09T19:07:32.487Z,102098.72
2022-08-09T19:10:15.568Z,102102.66
2022-08-09T19:12:50.735Z,102108.53
2022-08-09T19:15:22.186Z,102105.94
2022-08-09T19:17:56.381Z,102116.59
2022-08-09T19:20:24.401Z,102112.25
2022-08-09T19:22:54.491Z,102111.63
2022-08-09T19:25:41.935Z,102114.31
2022-08-09T19:28:13.411Z,102117.38
2022-08-09T19:30:44.654Z,102115.97
2022-08-09T19:33:19.396Z,102118.22
2022-08-09T19:35:58.319Z,102116.97
2022-08-09T19:38:27.746Z,102126.78
2022-08-09T19:40:59.747Z,102127.06
2022-08-09T19:44:00.430Z,102125.59
2022-08-09T19:46:16.450Z,102126.84
2022-08-09T19:50:10.139Z,102131.75
2022-08-09T19:51:54.935Z,102130.72
2022-08-09T19:54:28.279Z,102134.28
2022-08-09T19:56:56.681Z,102131.47
2022-08-09T19:59:58.546Z,102126.34
2022-08-09T20:02:17.353Z,102135.72
2022-08-09T20:05:01.981Z,102134.28
2022-08-09T20:07:59.001Z,102129.50
2022-08-09T20:10:34.000Z,102132.78
2022-08-09T20:13:05.012Z,102142.44
2022-08-09T20:16:35.369Z,102141.25
2022-08-09T20:18:22.345Z,102152.56
2022-08-09T20:20:55.056Z,102146.97
2022-08-09T20:23:23.619Z,102149.59
2022-08-09T20:25:53.571Z,102155.22
2022-08-09T20:28:32.040Z,102152.56
2022-08-09T20:31:13.734Z,102153.03
2022-08-09T20:33:44.350Z,102154.91
2022-08-09T20:36:13.879Z,102152.22
2022-08-09T20:39:18.781Z,102151.41
2022-08-09T20:41:35.292Z,102150.09
2022-08-09T20:44:10.081Z,102151.16
2022-08-09T20:46:44.770Z,102153.41
2022-08-09T20:49:16.753Z,102153.03
2022-08-09T20:51:50.657Z,102152.47
2022-08-09T20:54:18.215Z,102143.09
2022-08-09T20:56:49.894Z,102154.72
2022-08-09T21:00:19.091Z,102160.47
2022-08-09T21:02:17.383Z,102165.63
2022-08-09T21:05:56.504Z,102165.38
2022-08-09T21:07:40.293Z,102159.19
2022-08-09T21:10:11.977Z,102163.97
2022-08-09T21:12:39.362Z,102167.38
2022-08-09T21:15:12.639Z,102164.22
2022-08-09T21:18:29.761Z,102168.44
2022-08-09T21:20:30.268Z,102163.28
2022-08-09T21:22:59.736Z,102168.34
2022-08-09T21:25:54.188Z,102176.66
2022-08-09T21:28:34.529Z,102175.53
2022-08-09T21:31:13.575Z,102178.25
2022-08-09T21:33:50.333Z,102176.69
2022-08-09T21:36:27.916Z,102175.63
2022-08-09T21:38:59.457Z,102177.97
2022-08-09T21:42:03.526Z,102177.03
2022-08-09T21:44:32.711Z,102179.09
2022-08-09T21:47:09.826Z,102183.53
2022-08-09T21:49:42.634Z,102170.97
2022-08-09T21:52:20.301Z,102172.84
2022-08-09T21:55:03.132Z,102176.31
2022-08-09T21:57:59.201Z,102181.47
2022-08-09T22:00:33.777Z,102176.22
2022-08-09T22:03:19.139Z,102171.81
2022-08-09T22:05:47.621Z,102177.09
2022-08-09T22:08:19.042Z,102175.94
2022-08-09T22:11:49.645Z,102192.19
2022-08-09T22:13:37.469Z,102181.69
2022-08-09T22:16:09.249Z,102182.03
2022-08-09T22:18:53.282Z,102189.09
2022-08-09T22:21:44.818Z,102181.22
2022-08-09T22:24:16.967Z,102189.88
2022-08-09T22:26:51.040Z,102196.31
2022-08-09T22:29:25.548Z,102191.31
2022-08-09T22:31:57.404Z,102188.03
2022-08-09T22:34:28.828Z,102182.31
2022-08-09T22:36:59.645Z,102182.97
2022-08-09T22:39:57.135Z,102181.66
2022-08-09T22:42:22.337Z,102179.25
2022-08-09T22:45:00.038Z,102177.69
2022-08-09T22:48:11.475Z,102186.94
2022-08-09T22:50:16.652Z,102186.78
2022-08-09T22:52:43.638Z,102183.81
2022-08-09T22:55:22.698Z,102183.81
2022-08-09T22:58:00.134Z,102181.16
2022-08-09T23:00:29.409Z,102187.81
2022-08-09T23:02:57.226Z,102179.13
2022-08-09T23:05:25.610Z,102192.41
2022-08-09T23:08:22.330Z,102191.75
2022-08-09T23:10:50.954Z,102191.44
2022-08-09T23:13:17.929Z,102199.22
2022-08-09T23:16:03.421Z,102197.78
2022-08-09T23:18:31.283Z,102198.41
2022-08-09T23:20:58.492Z,102192.31
2022-08-09T23:23:25.538Z,102191.34
2022-08-09T23:25:52.633Z,102193.34
2022-08-09T23:28:19.687Z,102190.84
2022-08-09T23:30:51.994Z,102192.38
2022-08-09T23:33:22.132Z,102194.50
2022-08-09T23:36:07.136Z,102201.09
2022-08-09T23:38:36.073Z,102191.38
2022-08-09T23:41:27.954Z,102199.28
2022-08-09T23:43:59.607Z,102189.56
2022-08-09T23:46:29.643Z,102192.56
2022-08-09T23:48:59.108Z,102197.16
2022-08-09T23:51:27.795Z,102191.56
2022-08-09T23:54:02.621Z,102195.00
2022-08-09T23:56:51.947Z,102191.59
2022-08-09T23:59:22.416Z,102185.47
